Time;durP1;ratioP1;P1;durP2;ratioP2;P2;SDS_P1;SDS_P2;PMS_P1;PMS_P2;Temp;Humidity;BMP_temperature;BMP_pressure;BME280_temperature;BME280_humidity;BME280_pressure;Samples;Min_cycle;Max_cycle;Signal;HPM_P1;HPM_P2
2023/09/27 00:01:05;;;;;;;429.07;203.00;;;;;;;;;;4990978;28;20659;-73
2023/09/27 00:03:31;;;;;;;454.47;216.87;;;;;;;;;;4987191;28;20577;-72
2023/09/27 00:05:57;;;;;;;463.27;219.47;;;;;;;;;;4987162;28;20742;-73
2023/09/27 00:08:23;;;;;;;468.77;224.83;;;;;;;;;;4990511;28;20209;-72
2023/09/27 00:10:49;;;;;;;456.73;221.90;;;;;;;;;;4993753;28;20220;-73
2023/09/27 00:13:15;;;;;;;445.43;211.07;;;;;;;;;;4989043;28;20209;-73
2023/09/27 00:15:41;;;;;;;437.07;210.17;;;;;;;;;;4995740;28;20177;-73
2023/09/27 00:18:09;;;;;;;439.47;213.20;;;;;;;;;;4995421;28;20651;-72
2023/09/27 00:20:35;;;;;;;474.10;233.60;;;;;;;;;;4990709;28;20210;-73
2023/09/27 00:23:01;;;;;;;472.03;221.23;;;;;;;;;;4991569;28;20248;-73
2023/09/27 00:25:27;;;;;;;462.10;218.97;;;;;;;;;;4991341;28;20229;-73
2023/09/27 00:27:53;;;;;;;456.57;217.87;;;;;;;;;;4992516;28;20667;-72
2023/09/27 00:30:19;;;;;;;453.37;212.17;;;;;;;;;;4991604;28;20181;-73
2023/09/27 00:32:45;;;;;;;444.50;206.70;;;;;;;;;;4987111;28;20221;-73
2023/09/27 00:35:18;;;;;;;474.47;222.77;;;;;;;;;;4989243;28;20693;-72
2023/09/27 00:37:44;;;;;;;432.90;202.60;;;;;;;;;;4991353;28;20771;-72
2023/09/27 00:40:12;;;;;;;471.50;218.93;;;;;;;;;;4992809;28;20379;-73
2023/09/27 00:42:38;;;;;;;487.43;222.47;;;;;;;;;;4991717;28;20691;-72
2023/09/27 00:45:05;;;;;;;472.93;218.20;;;;;;;;;;4988382;28;20217;-73
2023/09/27 00:47:31;;;;;;;475.17;226.03;;;;;;;;;;4989193;28;20244;-73
2023/09/27 00:49:57;;;;;;;467.00;222.93;;;;;;;;;;4997380;28;20307;-73
2023/09/27 00:52:23;;;;;;;424.33;200.13;;;;;;;;;;4991328;28;20826;-73
2023/09/27 00:54:50;;;;;;;427.07;202.30;;;;;;;;;;4989827;28;20188;-73
2023/09/27 00:57:16;;;;;;;453.00;209.07;;;;;;;;;;4996242;28;20217;-73
2023/09/27 00:59:42;;;;;;;476.07;223.00;;;;;;;;;;4989737;28;20621;-72
2023/09/27 01:02:08;;;;;;;454.23;208.63;;;;;;;;;;4992279;28;20221;-73
2023/09/27 01:04:34;;;;;;;501.50;234.93;;;;;;;;;;4986564;28;20212;-73
2023/09/27 01:07:00;;;;;;;465.37;213.67;;;;;;;;;;4988955;28;20320;-72
2023/09/27 01:09:26;;;;;;;432.77;196.60;;;;;;;;;;4999283;28;20258;-73
2023/09/27 01:11:52;;;;;;;472.83;219.73;;;;;;;;;;4991623;28;20224;-73
2023/09/27 01:14:18;;;;;;;450.43;206.50;;;;;;;;;;4988816;28;20225;-72
2023/09/27 01:16:44;;;;;;;473.97;215.90;;;;;;;;;;4987569;28;20595;-73
2023/09/27 01:19:10;;;;;;;504.87;234.80;;;;;;;;;;4991439;28;20213;-73
2023/09/27 01:21:36;;;;;;;515.03;242.13;;;;;;;;;;4987656;28;20202;-73
2023/09/27 01:24:02;;;;;;;476.43;219.80;;;;;;;;;;4993529;28;20212;-72
2023/09/27 01:26:29;;;;;;;456.67;207.47;;;;;;;;;;4988582;28;20240;-73
2023/09/27 01:28:55;;;;;;;451.73;212.70;;;;;;;;;;4994965;28;20535;-74
2023/09/27 01:31:21;;;;;;;454.23;213.40;;;;;;;;;;4989365;28;20385;-75
2023/09/27 01:33:47;;;;;;;478.73;226.30;;;;;;;;;;4990327;28;20399;-73
2023/09/27 01:36:13;;;;;;;453.63;212.03;;;;;;;;;;4987816;28;20676;-73
2023/09/27 01:38:39;;;;;;;481.73;220.13;;;;;;;;;;4988862;28;20615;-73
2023/09/27 01:41:05;;;;;;;438.27;202.20;;;;;;;;;;4988436;28;20216;-73
2023/09/27 01:43:31;;;;;;;462.97;211.23;;;;;;;;;;4990981;28;20225;-74
2023/09/27 01:45:57;;;;;;;461.47;212.77;;;;;;;;;;4989984;28;20276;-75
2023/09/27 01:48:23;;;;;;;447.20;207.37;;;;;;;;;;4990118;28;20269;-75
2023/09/27 01:50:49;;;;;;;443.43;202.40;;;;;;;;;;4985842;28;20205;-74
2023/09/27 01:53:15;;;;;;;450.93;199.53;;;;;;;;;;4985487;28;20276;-72
2023/09/27 01:55:41;;;;;;;534.60;242.03;;;;;;;;;;4992862;28;20216;-73
2023/09/27 01:58:07;;;;;;;460.13;203.73;;;;;;;;;;4988177;28;20258;-72
2023/09/27 02:00:33;;;;;;;459.17;202.17;;;;;;;;;;4995282;28;20200;-72
2023/09/27 02:03:00;;;;;;;477.23;214.47;;;;;;;;;;4975980;28;20220;-73
2023/09/27 02:05:27;;;;;;;463.13;208.90;;;;;;;;;;4981297;28;20210;-73
2023/09/27 02:07:53;;;;;;;448.37;199.83;;;;;;;;;;4985366;28;21157;-72
2023/09/27 02:10:19;;;;;;;443.70;197.27;;;;;;;;;;4989155;28;20224;-72
2023/09/27 02:12:45;;;;;;;476.13;213.87;;;;;;;;;;4989191;28;20726;-73
2023/09/27 02:15:12;;;;;;;469.40;212.13;;;;;;;;;;4983519;28;20285;-73
2023/09/27 02:17:39;;;;;;;483.73;216.93;;;;;;;;;;4988891;28;20359;-73
2023/09/27 02:20:07;;;;;;;468.60;208.90;;;;;;;;;;4987155;28;20259;-73
2023/09/27 02:22:33;;;;;;;443.77;198.63;;;;;;;;;;4984893;28;20249;-73
2023/09/27 02:24:59;;;;;;;448.07;202.37;;;;;;;;;;4985372;28;20235;-73
2023/09/27 02:27:24;;;;;;;447.63;203.23;;;;;;;;;;4982990;28;20410;-73
2023/09/27 02:29:50;;;;;;;465.83;213.40;;;;;;;;;;4996638;28;20293;-72
2023/09/27 02:32:17;;;;;;;454.10;205.93;;;;;;;;;;4986268;28;20221;-72
2023/09/27 02:34:43;;;;;;;533.30;249.63;;;;;;;;;;4982291;28;20252;-72
2023/09/27 02:37:09;;;;;;;460.60;207.63;;;;;;;;;;4988527;28;20663;-73
2023/09/27 02:39:35;;;;;;;474.77;212.57;;;;;;;;;;4992145;28;20632;-72
2023/09/27 02:42:01;;;;;;;474.97;213.33;;;;;;;;;;5006963;28;20452;-73
2023/09/27 02:44:27;;;;;;;439.87;199.80;;;;;;;;;;4988462;28;20243;-73
2023/09/27 02:46:53;;;;;;;464.97;211.87;;;;;;;;;;4991408;28;20664;-73
2023/09/27 02:49:20;;;;;;;454.27;199.47;;;;;;;;;;4983179;28;20639;-72
2023/09/27 02:51:47;;;;;;;482.37;213.97;;;;;;;;;;4985359;28;20205;-72
2023/09/27 02:54:14;;;;;;;464.43;208.33;;;;;;;;;;4985124;28;20229;-72
2023/09/27 02:56:40;;;;;;;473.00;210.97;;;;;;;;;;4991004;28;20687;-72
2023/09/27 02:59:06;;;;;;;457.70;206.67;;;;;;;;;;4989763;28;20710;-73
2023/09/27 03:01:32;;;;;;;464.90;214.13;;;;;;;;;;4984041;28;20208;-75
2023/09/27 03:03:58;;;;;;;488.77;219.40;;;;;;;;;;4984218;28;20196;-73
2023/09/27 03:06:24;;;;;;;439.40;199.00;;;;;;;;;;4983519;28;20177;-73
2023/09/27 03:08:50;;;;;;;486.33;218.53;;;;;;;;;;4984262;28;20268;-72
2023/09/27 03:11:17;;;;;;;474.23;207.50;;;;;;;;;;4983699;28;20514;-72
2023/09/27 03:13:44;;;;;;;478.97;214.77;;;;;;;;;;4979146;28;20244;-72
2023/09/27 03:16:10;;;;;;;463.43;206.97;;;;;;;;;;4985234;28;20221;-74
2023/09/27 03:18:37;;;;;;;483.13;221.97;;;;;;;;;;4984838;28;20659;-73
2023/09/27 03:21:03;;;;;;;451.87;203.07;;;;;;;;;;4985033;28;20209;-73
2023/09/27 03:23:29;;;;;;;417.27;190.40;;;;;;;;;;4985669;28;20610;-73
2023/09/27 03:25:56;;;;;;;479.07;219.57;;;;;;;;;;4987235;28;20722;-72
2023/09/27 03:28:22;;;;;;;466.27;211.43;;;;;;;;;;4987843;28;20583;-72
2023/09/27 03:30:48;;;;;;;485.90;217.93;;;;;;;;;;4980898;28;20177;-73
2023/09/27 03:33:14;;;;;;;460.07;205.67;;;;;;;;;;4993220;28;20288;-73
2023/09/27 03:35:41;;;;;;;431.60;191.47;;;;;;;;;;4980896;28;20815;-72
2023/09/27 03:38:07;;;;;;;467.33;212.90;;;;;;;;;;4986767;28;20212;-73
2023/09/27 03:40:33;;;;;;;453.53;207.77;;;;;;;;;;4988818;28;20701;-73
2023/09/27 03:42:59;;;;;;;467.53;210.63;;;;;;;;;;4993922;28;20229;-72
2023/09/27 03:45:25;;;;;;;466.73;211.63;;;;;;;;;;4984879;28;20598;-72
2023/09/27 03:47:51;;;;;;;497.43;230.87;;;;;;;;;;4984849;28;20434;-73
2023/09/27 03:50:19;;;;;;;454.97;201.03;;;;;;;;;;4993141;28;20209;-73
2023/09/27 03:52:45;;;;;;;462.87;207.73;;;;;;;;;;4993466;28;20591;-72
2023/09/27 03:55:12;;;;;;;466.67;205.63;;;;;;;;;;4989332;28;20564;-73
2023/09/27 03:57:38;;;;;;;451.47;199.70;;;;;;;;;;4991167;28;20321;-72
2023/09/27 04:00:14;;;;;;;469.70;209.70;;;;;;;;;;4988887;28;20244;-73
2023/09/27 04:02:41;;;;;;;442.77;196.50;;;;;;;;;;4988153;28;20213;-72
2023/09/27 04:05:07;;;;;;;494.23;222.67;;;;;;;;;;4987619;28;20217;-72
2023/09/27 04:07:33;;;;;;;463.90;203.13;;;;;;;;;;4989756;28;20213;-73
2023/09/27 04:10:00;;;;;;;480.10;218.63;;;;;;;;;;4998898;28;20238;-72
2023/09/27 04:12:26;;;;;;;472.10;206.67;;;;;;;;;;4995817;28;20227;-73
2023/09/27 04:14:52;;;;;;;458.90;204.93;;;;;;;;;;4990004;28;20221;-72
2023/09/27 04:17:18;;;;;;;439.20;193.03;;;;;;;;;;4992586;28;20243;-72
2023/09/27 04:19:44;;;;;;;471.23;215.50;;;;;;;;;;4987623;28;20216;-72
2023/09/27 04:22:09;;;;;;;493.47;217.23;;;;;;;;;;4986601;28;20259;-73
2023/09/27 04:24:36;;;;;;;472.07;204.37;;;;;;;;;;4989126;28;20377;-73
2023/09/27 04:27:03;;;;;;;493.63;221.23;;;;;;;;;;4993428;28;20221;-73
2023/09/27 04:29:29;;;;;;;485.63;214.73;;;;;;;;;;4991957;28;20217;-73
2023/09/27 04:31:55;;;;;;;469.77;208.13;;;;;;;;;;4990616;28;20220;-73
2023/09/27 04:34:21;;;;;;;430.37;186.87;;;;;;;;;;4986480;28;20209;-73
2023/09/27 04:36:48;;;;;;;478.10;212.10;;;;;;;;;;4986189;28;20204;-72
2023/09/27 04:39:16;;;;;;;435.47;192.57;;;;;;;;;;4993186;28;20190;-73
2023/09/27 04:41:43;;;;;;;450.30;194.23;;;;;;;;;;4994908;28;20308;-73
2023/09/27 04:44:09;;;;;;;469.20;203.23;;;;;;;;;;4987056;28;20304;-73
2023/09/27 04:46:35;;;;;;;455.30;200.03;;;;;;;;;;4993078;28;20301;-73
2023/09/27 04:49:02;;;;;;;486.60;218.03;;;;;;;;;;4991484;28;20268;-73
2023/09/27 04:51:29;;;;;;;485.37;215.03;;;;;;;;;;4989300;28;20710;-73
2023/09/27 04:54:00;;;;;;;473.23;206.33;;;;;;;;;;4996437;28;20610;-73
2023/09/27 04:56:26;;;;;;;437.03;191.90;;;;;;;;;;4979973;28;20249;-73
2023/09/27 04:58:52;;;;;;;475.37;211.13;;;;;;;;;;4991550;28;20248;-73
2023/09/27 05:01:18;;;;;;;459.77;198.63;;;;;;;;;;4991231;28;20220;-73
2023/09/27 05:03:44;;;;;;;480.93;212.47;;;;;;;;;;4987775;28;20236;-73
2023/09/27 05:06:10;;;;;;;463.93;197.93;;;;;;;;;;4987008;28;20313;-73
2023/09/27 05:08:36;;;;;;;437.97;191.17;;;;;;;;;;4994121;28;20218;-72
2023/09/27 05:11:02;;;;;;;445.73;200.50;;;;;;;;;;4991638;28;20275;-72
2023/09/27 05:13:28;;;;;;;430.43;190.33;;;;;;;;;;4994460;28;20229;-72
2023/09/27 05:15:53;;;;;;;458.40;204.27;;;;;;;;;;4981542;28;20374;-73
2023/09/27 05:18:22;;;;;;;447.23;192.33;;;;;;;;;;4993268;28;20660;-72
2023/09/27 05:20:48;;;;;;;461.10;199.17;;;;;;;;;;4996768;28;20217;-73
2023/09/27 05:23:14;;;;;;;427.07;185.10;;;;;;;;;;4992891;28;20768;-71
2023/09/27 05:25:41;;;;;;;444.03;192.07;;;;;;;;;;4977662;28;20224;-71
2023/09/27 05:28:07;;;;;;;559.47;271.90;;;;;;;;;;4970593;28;20307;-77
2023/09/27 05:30:33;;;;;;;441.57;194.97;;;;;;;;;;4988654;28;20731;-77
2023/09/27 05:32:59;;;;;;;462.17;206.83;;;;;;;;;;4991554;28;20217;-75
2023/09/27 05:35:25;;;;;;;439.60;193.23;;;;;;;;;;4990834;28;20717;-76
2023/09/27 05:37:51;;;;;;;454.53;195.97;;;;;;;;;;4988982;28;20206;-76
2023/09/27 05:40:17;;;;;;;465.57;201.13;;;;;;;;;;4993438;28;20263;-76
2023/09/27 05:42:43;;;;;;;457.27;196.83;;;;;;;;;;4992693;28;20216;-76
2023/09/27 05:45:11;;;;;;;469.73;206.47;;;;;;;;;;5002458;28;20209;-77
2023/09/27 05:47:37;;;;;;;451.37;195.00;;;;;;;;;;4991646;28;20230;-76
2023/09/27 05:50:04;;;;;;;475.37;208.20;;;;;;;;;;4989969;28;20564;-74
2023/09/27 05:52:30;;;;;;;435.90;187.53;;;;;;;;;;4993555;28;20213;-71
2023/09/27 05:54:56;;;;;;;475.27;210.43;;;;;;;;;;4988030;28;20185;-72
2023/09/27 05:57:22;;;;;;;451.33;195.30;;;;;;;;;;4990675;28;20654;-73
2023/09/27 05:59:49;;;;;;;465.23;205.50;;;;;;;;;;4990690;28;20206;-74
2023/09/27 06:02:20;;;;;;;449.00;199.07;;;;;;;;;;4986553;28;20225;-73
2023/09/27 06:04:46;;;;;;;467.80;203.43;;;;;;;;;;4989366;28;20484;-73
2023/09/27 06:07:14;;;;;;;472.50;206.03;;;;;;;;;;4986850;28;20220;-73
2023/09/27 06:09:42;;;;;;;467.37;201.43;;;;;;;;;;4988636;28;20391;-73
2023/09/27 06:12:10;;;;;;;461.27;205.97;;;;;;;;;;4986392;28;20220;-73
2023/09/27 06:14:36;;;;;;;448.33;195.10;;;;;;;;;;4990946;28;20220;-74
2023/09/27 06:17:02;;;;;;;475.37;212.40;;;;;;;;;;4997014;28;20793;-73
2023/09/27 06:19:28;;;;;;;473.40;216.40;;;;;;;;;;4980142;28;20559;-74
2023/09/27 06:21:54;;;;;;;445.70;198.27;;;;;;;;;;4990335;28;20216;-72
2023/09/27 06:24:20;;;;;;;458.57;207.30;;;;;;;;;;4990423;28;20174;-73
2023/09/27 06:26:46;;;;;;;452.10;200.43;;;;;;;;;;4990016;28;20262;-74
2023/09/27 06:29:13;;;;;;;466.47;210.87;;;;;;;;;;4987147;28;20706;-74
2023/09/27 06:31:39;;;;;;;472.37;214.10;;;;;;;;;;4993089;28;20217;-74
2023/09/27 06:34:05;;;;;;;460.90;211.10;;;;;;;;;;4997349;28;20239;-73
2023/09/27 06:36:34;;;;;;;440.57;197.63;;;;;;;;;;4988289;28;20192;-74
2023/09/27 06:39:00;;;;;;;476.47;218.17;;;;;;;;;;4990668;28;20820;-73
2023/09/27 06:41:26;;;;;;;476.10;219.83;;;;;;;;;;4992319;28;20209;-73
2023/09/27 06:43:53;;;;;;;484.83;223.10;;;;;;;;;;4985295;28;20224;-72
2023/09/27 06:46:19;;;;;;;442.10;203.70;;;;;;;;;;4986686;28;20510;-74
2023/09/27 06:48:46;;;;;;;438.87;200.60;;;;;;;;;;4991687;28;20184;-73
2023/09/27 06:51:13;;;;;;;472.03;215.60;;;;;;;;;;4987509;28;20706;-73
2023/09/27 06:53:39;;;;;;;442.23;203.93;;;;;;;;;;4993720;28;20220;-73
2023/09/27 06:56:06;;;;;;;481.07;223.30;;;;;;;;;;4986862;28;20218;-73
2023/09/27 06:58:32;;;;;;;463.77;210.70;;;;;;;;;;4990832;28;20212;-73
2023/09/27 07:00:58;;;;;;;482.63;225.00;;;;;;;;;;4985929;28;20200;-75
2023/09/27 07:03:24;;;;;;;448.07;204.70;;;;;;;;;;4998630;28;20208;-73
2023/09/27 07:05:51;;;;;;;458.70;213.93;;;;;;;;;;4984761;28;20320;-74
2023/09/27 07:08:17;;;;;;;440.70;203.13;;;;;;;;;;4984922;28;20209;-74
2023/09/27 07:10:44;;;;;;;444.23;207.20;;;;;;;;;;4989640;28;20209;-72
2023/09/27 07:13:10;;;;;;;463.73;218.60;;;;;;;;;;4998235;28;20271;-74
2023/09/27 07:15:37;;;;;;;461.90;217.77;;;;;;;;;;4992777;28;20181;-73
2023/09/27 07:18:03;;;;;;;485.03;229.57;;;;;;;;;;4986632;28;20205;-73
2023/09/27 07:20:34;;;;;;;452.83;215.17;;;;;;;;;;4989862;28;20211;-73
2023/09/27 07:23:03;;;;;;;464.20;220.67;;;;;;;;;;4985674;28;20232;-73
2023/09/27 07:25:34;;;;;;;463.03;221.53;;;;;;;;;;4993544;28;20233;-74
2023/09/27 07:28:01;;;;;;;471.17;226.73;;;;;;;;;;4991600;28;20664;-76
2023/09/27 07:30:27;;;;;;;447.33;214.03;;;;;;;;;;4989356;28;20559;-75
2023/09/27 07:32:55;;;;;;;452.90;221.93;;;;;;;;;;4987904;28;20221;-75
2023/09/27 07:35:21;;;;;;;470.23;225.57;;;;;;;;;;4979946;28;20579;-77
2023/09/27 07:37:47;;;;;;;461.07;218.23;;;;;;;;;;4990019;28;20237;-75
2023/09/27 07:40:14;;;;;;;494.50;240.33;;;;;;;;;;4990231;28;20221;-79
2023/09/27 07:42:42;;;;;;;472.90;228.23;;;;;;;;;;4987490;28;20216;-77
2023/09/27 07:45:13;;;;;;;451.47;219.13;;;;;;;;;;4971240;28;20275;-77
2023/09/27 07:47:39;;;;;;;475.50;235.33;;;;;;;;;;4992240;28;20221;-80
2023/09/27 07:50:05;;;;;;;476.93;230.57;;;;;;;;;;4988534;28;20568;-78
2023/09/27 07:52:31;;;;;;;455.40;219.03;;;;;;;;;;4989089;28;20217;-78
2023/09/27 07:54:58;;;;;;;484.70;239.40;;;;;;;;;;4983925;28;20991;-77
2023/09/27 07:57:24;;;;;;;475.33;230.83;;;;;;;;;;4983516;28;20174;-77
2023/09/27 07:59:52;;;;;;;474.33;236.13;;;;;;;;;;4982422;28;20707;-80
2023/09/27 08:02:17;;;;;;;462.00;230.90;;;;;;;;;;4994523;28;20698;-76
2023/09/27 08:04:43;;;;;;;504.87;255.33;;;;;;;;;;4988101;28;20213;-76
2023/09/27 08:07:11;;;;;;;490.90;250.47;;;;;;;;;;4987806;28;20229;-76
2023/09/27 08:09:38;;;;;;;470.73;230.77;;;;;;;;;;4990378;28;20181;-75
2023/09/27 08:12:05;;;;;;;471.20;234.43;;;;;;;;;;4989714;28;20315;-75
2023/09/27 08:14:31;;;;;;;460.93;229.70;;;;;;;;;;4990902;28;20722;-76
2023/09/27 08:16:57;;;;;;;457.27;225.60;;;;;;;;;;4996299;28;20271;-75
2023/09/27 08:19:24;;;;;;;481.80;239.07;;;;;;;;;;4986786;28;20213;-75
2023/09/27 08:21:50;;;;;;;468.27;235.27;;;;;;;;;;4985707;28;20200;-76
2023/09/27 08:24:17;;;;;;;485.70;242.87;;;;;;;;;;4988078;28;20212;-76
2023/09/27 08:26:43;;;;;;;458.73;227.90;;;;;;;;;;4988797;28;20295;-77
2023/09/27 08:29:09;;;;;;;490.37;243.47;;;;;;;;;;4980629;28;20697;-77
2023/09/27 08:31:37;;;;;;;495.23;250.43;;;;;;;;;;4991393;28;20224;-77
2023/09/27 08:34:04;;;;;;;483.17;249.53;;;;;;;;;;4991881;28;20181;-77
2023/09/27 08:36:30;;;;;;;465.03;239.10;;;;;;;;;;4989592;28;20819;-76
2023/09/27 08:38:56;;;;;;;478.60;243.50;;;;;;;;;;4985565;28;20217;-78
2023/09/27 08:41:24;;;;;;;508.60;263.03;;;;;;;;;;4987054;28;20261;-76
2023/09/27 08:43:53;;;;;;;526.90;275.47;;;;;;;;;;4990377;28;20221;-77
2023/09/27 08:46:21;;;;;;;490.53;253.30;;;;;;;;;;4989238;28;20223;-75
2023/09/27 08:48:48;;;;;;;476.80;246.17;;;;;;;;;;4987285;28;20185;-78
2023/09/27 08:51:14;;;;;;;472.77;249.77;;;;;;;;;;4995855;28;20217;-77
2023/09/27 08:53:42;;;;;;;487.23;254.47;;;;;;;;;;4994718;28;20236;-76
2023/09/27 08:56:09;;;;;;;473.83;250.13;;;;;;;;;;4990978;28;20225;-76
2023/09/27 08:58:36;;;;;;;460.93;246.97;;;;;;;;;;4990691;28;20220;-76
2023/09/27 09:01:02;;;;;;;477.53;260.70;;;;;;;;;;4991519;28;20579;-77
2023/09/27 09:03:29;;;;;;;469.90;248.90;;;;;;;;;;4990795;28;20217;-74
2023/09/27 09:05:55;;;;;;;482.90;262.10;;;;;;;;;;4992469;28;20220;-74
2023/09/27 09:08:21;;;;;;;464.03;251.93;;;;;;;;;;4985970;28;20209;-75
2023/09/27 09:10:47;;;;;;;495.30;269.40;;;;;;;;;;4994974;28;20761;-74
2023/09/27 09:13:13;;;;;;;475.70;261.13;;;;;;;;;;4991626;28;20217;-74
2023/09/27 09:15:47;;;;;;;384.07;232.17;;;;;;;;;;4995037;28;20651;-73
2023/09/27 09:18:14;;;;;;;398.33;239.20;;;;;;;;;;4991206;28;20209;-74
2023/09/27 09:20:54;;;;;;;384.10;224.63;;;;;;;;;;4994243;28;20279;-75
2023/09/27 09:23:33;;;;;;;405.90;239.37;;;;;;;;;;4991696;28;20624;-73
2023/09/27 09:25:59;;;;;;;391.20;236.57;;;;;;;;;;4994053;28;20223;-74
2023/09/27 09:28:25;;;;;;;400.83;237.50;;;;;;;;;;4994141;28;20296;-74
2023/09/27 09:30:52;;;;;;;389.17;232.17;;;;;;;;;;4996435;28;20189;-74
2023/09/27 09:33:19;;;;;;;399.00;238.20;;;;;;;;;;4991687;28;20258;-74
2023/09/27 09:35:46;;;;;;;393.43;238.00;;;;;;;;;;4991092;28;20225;-74
2023/09/27 09:38:13;;;;;;;396.07;251.17;;;;;;;;;;5002536;28;20235;-73
2023/09/27 09:40:55;;;;;;;370.30;233.07;;;;;;;;;;4992079;28;20774;-75
2023/09/27 09:43:31;;;;;;;392.27;239.10;;;;;;;;;;4992305;28;20572;-74
2023/09/27 09:45:57;;;;;;;420.03;252.53;;;;;;;;;;4985519;28;20197;-74
2023/09/27 09:48:23;;;;;;;501.47;284.90;;;;;;;;;;4995616;28;20296;-75
2023/09/27 09:50:49;;;;;;;468.17;271.77;;;;;;;;;;4989180;28;20219;-72
2023/09/27 09:53:16;;;;;;;464.90;275.77;;;;;;;;;;4997680;28;20232;-70
2023/09/27 09:55:43;;;;;;;463.90;276.47;;;;;;;;;;4996378;28;20706;-72
2023/09/27 09:58:17;;;;;;;457.20;279.63;;;;;;;;;;4991047;28;20213;-73
2023/09/27 10:00:49;;;;;;;464.63;272.80;;;;;;;;;;4988212;28;20281;-61
2023/09/27 10:03:19;;;;;;;476.87;289.77;;;;;;;;;;4990957;28;20229;-60
2023/09/27 10:05:45;;;;;;;480.27;289.10;;;;;;;;;;4987876;28;20255;-61
2023/09/27 10:08:12;;;;;;;463.23;280.73;;;;;;;;;;4986477;28;20219;-60
2023/09/27 10:10:39;;;;;;;456.23;275.97;;;;;;;;;;4990618;28;20216;-60
2023/09/27 10:13:06;;;;;;;472.50;285.23;;;;;;;;;;4990412;28;20480;-61
2023/09/27 10:15:35;;;;;;;444.23;285.93;;;;;;;;;;4987791;28;20186;-60
2023/09/27 10:18:20;;;;;;;451.57;269.17;;;;;;;;;;4989641;28;20224;-65
2023/09/27 10:21:02;;;;;;;454.57;281.13;;;;;;;;;;4987235;28;20209;-60
2023/09/27 10:23:33;;;;;;;445.73;287.00;;;;;;;;;;4990820;28;20220;-60
2023/09/27 10:26:17;;;;;;;457.83;275.97;;;;;;;;;;4988206;28;20587;-60
2023/09/27 10:29:03;;;;;;;460.07;287.93;;;;;;;;;;4986689;28;20288;-60
2023/09/27 10:31:33;;;;;;;468.23;278.10;;;;;;;;;;4987135;28;20209;-60
2023/09/27 10:33:59;;;;;;;446.80;282.73;;;;;;;;;;4990069;28;20205;-60
2023/09/27 10:36:25;;;;;;;442.33;270.40;;;;;;;;;;4991242;28;20739;-67
2023/09/27 10:38:51;;;;;;;447.13;268.67;;;;;;;;;;4989899;28;20325;-67
2023/09/27 10:41:32;;;;;;;442.23;276.27;;;;;;;;;;4983004;28;20214;-67
2023/09/27 10:43:59;;;;;;;537.60;345.63;;;;;;;;;;4982384;28;20224;-67
2023/09/27 10:46:25;;;;;;;455.73;284.60;;;;;;;;;;4988929;28;20220;-67
2023/09/27 10:48:54;;;;;;;438.37;282.67;;;;;;;;;;4988334;28;20193;-67
2023/09/27 10:51:21;;;;;;;494.90;317.73;;;;;;;;;;4984185;28;20185;-67
2023/09/27 10:53:48;;;;;;;494.60;309.30;;;;;;;;;;4993610;28;20213;-67
2023/09/27 10:56:15;;;;;;;465.27;300.50;;;;;;;;;;4986429;28;20227;-67
2023/09/27 10:58:50;;;;;;;490.30;312.07;;;;;;;;;;4982624;28;20218;-67
2023/09/27 11:01:20;;;;;;;469.37;300.97;;;;;;;;;;4989464;28;20225;-67
2023/09/27 11:03:45;;;;;;;511.77;320.80;;;;;;;;;;4991558;28;20296;-67
2023/09/27 11:06:12;;;;;;;484.87;301.03;;;;;;;;;;4983911;28;20572;-68
2023/09/27 11:08:42;;;;;;;484.67;301.10;;;;;;;;;;4987622;28;20532;-67
2023/09/27 11:11:08;;;;;;;448.37;280.13;;;;;;;;;;4987937;28;20596;-67
2023/09/27 11:13:35;;;;;;;461.67;283.03;;;;;;;;;;4989437;28;20229;-65
2023/09/27 11:16:08;;;;;;;486.80;305.50;;;;;;;;;;4991791;28;20898;-66
2023/09/27 11:18:35;;;;;;;500.70;317.80;;;;;;;;;;4985946;28;20186;-66
2023/09/27 11:21:10;;;;;;;499.10;316.30;;;;;;;;;;4984923;28;20219;-66
2023/09/27 11:23:55;;;;;;;519.10;325.97;;;;;;;;;;4985768;28;20248;-66
2023/09/27 11:26:29;;;;;;;484.80;307.70;;;;;;;;;;4987144;28;20212;-67
2023/09/27 11:28:57;;;;;;;489.40;312.30;;;;;;;;;;4979071;28;20225;-66
2023/09/27 11:31:23;;;;;;;495.10;314.20;;;;;;;;;;4989968;28;20221;-66
2023/09/27 11:33:49;;;;;;;453.50;299.30;;;;;;;;;;4992413;28;20583;-67
2023/09/27 11:36:15;;;;;;;494.43;329.10;;;;;;;;;;4988340;28;20181;-66
2023/09/27 11:38:48;;;;;;;467.57;312.80;;;;;;;;;;4987770;28;20205;-67
2023/09/27 11:41:16;;;;;;;456.93;294.60;;;;;;;;;;4986931;28;20218;-66
2023/09/27 11:43:42;;;;;;;484.43;327.17;;;;;;;;;;4989468;28;20216;-66
2023/09/27 11:46:07;;;;;;;470.13;318.10;;;;;;;;;;4992757;28;20935;-67
2023/09/27 11:48:34;;;;;;;469.33;323.70;;;;;;;;;;4995209;28;20185;-69
2023/09/27 11:51:00;;;;;;;488.23;326.50;;;;;;;;;;4991942;28;20596;-68
2023/09/27 11:53:26;;;;;;;458.43;320.40;;;;;;;;;;4987979;28;20215;-69
2023/09/27 11:55:54;;;;;;;499.57;343.20;;;;;;;;;;4985978;28;20695;-67
2023/09/27 11:58:20;;;;;;;458.13;324.50;;;;;;;;;;4986594;28;20221;-67
2023/09/27 12:00:46;;;;;;;457.50;315.50;;;;;;;;;;4989066;28;20548;-66
2023/09/27 12:03:12;;;;;;;461.83;310.67;;;;;;;;;;4990485;28;20526;-67
2023/09/27 12:05:38;;;;;;;449.10;306.97;;;;;;;;;;4988286;28;20244;-67
2023/09/27 12:08:05;;;;;;;454.63;316.27;;;;;;;;;;4991300;28;20255;-66
2023/09/27 12:10:31;;;;;;;473.77;325.43;;;;;;;;;;4991022;28;20862;-67
2023/09/27 12:12:57;;;;;;;478.17;330.50;;;;;;;;;;4988485;28;20335;-67
2023/09/27 12:15:23;;;;;;;464.70;329.87;;;;;;;;;;4995425;28;20189;-66
2023/09/27 12:17:49;;;;;;;475.07;346.97;;;;;;;;;;4983370;28;20221;-67
2023/09/27 12:20:15;;;;;;;461.37;322.43;;;;;;;;;;4993079;28;20938;-67
2023/09/27 12:22:42;;;;;;;463.00;317.60;;;;;;;;;;4987952;28;20861;-66
2023/09/27 12:25:08;;;;;;;470.73;337.53;;;;;;;;;;4991966;28;20219;-66
2023/09/27 12:27:34;;;;;;;472.27;331.97;;;;;;;;;;4994556;28;20276;-66
2023/09/27 12:30:00;;;;;;;475.03;337.50;;;;;;;;;;4994058;28;20300;-66
2023/09/27 12:32:26;;;;;;;467.00;323.83;;;;;;;;;;4989678;28;20778;-66
2023/09/27 12:34:52;;;;;;;475.87;336.43;;;;;;;;;;4988583;28;20277;-66
2023/09/27 12:37:18;;;;;;;485.20;360.67;;;;;;;;;;4993267;28;20213;-65
2023/09/27 12:39:44;;;;;;;504.23;363.80;;;;;;;;;;4989399;28;20441;-66
2023/09/27 12:42:10;;;;;;;477.57;363.50;;;;;;;;;;4988210;28;20221;-76
2023/09/27 12:44:36;;;;;;;525.97;385.90;;;;;;;;;;4984197;28;20206;-76
2023/09/27 12:47:02;;;;;;;511.43;367.97;;;;;;;;;;4989574;28;20216;-76
2023/09/27 12:49:28;;;;;;;516.77;370.80;;;;;;;;;;4986914;28;20217;-77
2023/09/27 12:51:54;;;;;;;541.40;387.07;;;;;;;;;;4985430;28;20639;-78
2023/09/27 12:54:22;;;;;;;498.10;365.63;;;;;;;;;;4987487;28;20965;-76
2023/09/27 12:56:48;;;;;;;486.47;361.40;;;;;;;;;;4980982;28;20248;-75
2023/09/27 12:59:14;;;;;;;510.63;384.07;;;;;;;;;;4985818;28;20217;-77
2023/09/27 13:01:40;;;;;;;560.57;408.90;;;;;;;;;;4994403;28;20266;-77
2023/09/27 13:04:06;;;;;;;503.27;385.23;;;;;;;;;;4986710;28;20235;-76
2023/09/27 13:06:32;;;;;;;501.00;378.17;;;;;;;;;;4989590;28;20178;-75
2023/09/27 13:08:58;;;;;;;552.13;412.33;;;;;;;;;;4976916;28;20220;-76
2023/09/27 13:11:24;;;;;;;525.57;389.43;;;;;;;;;;4993973;28;20223;-76
2023/09/27 13:13:50;;;;;;;534.33;401.17;;;;;;;;;;4985801;28;20587;-77
2023/09/27 13:16:16;;;;;;;616.73;452.67;;;;;;;;;;4977537;28;20216;-76
2023/09/27 13:18:42;;;;;;;536.20;409.13;;;;;;;;;;4988115;28;20188;-76
2023/09/27 13:21:11;;;;;;;504.30;405.07;;;;;;;;;;4987637;28;20214;-76
2023/09/27 13:23:37;;;;;;;514.33;419.20;;;;;;;;;;4978249;28;20217;-76
2023/09/27 13:26:03;;;;;;;517.50;411.77;;;;;;;;;;4989534;28;20221;-75
2023/09/27 13:28:29;;;;;;;509.50;433.37;;;;;;;;;;4993896;28;20212;-77
2023/09/27 13:30:55;;;;;;;503.63;428.37;;;;;;;;;;4992372;28;20217;-74
2023/09/27 13:33:21;;;;;;;487.40;415.07;;;;;;;;;;4986118;28;20193;-75
2023/09/27 13:35:48;;;;;;;507.07;444.20;;;;;;;;;;4985726;28;20221;-73
2023/09/27 13:38:14;;;;;;;508.43;453.43;;;;;;;;;;4988780;28;20209;-76
2023/09/27 13:40:40;;;;;;;546.93;489.57;;;;;;;;;;4974530;28;20218;-80
2023/09/27 13:43:06;;;;;;;545.63;488.30;;;;;;;;;;4988326;28;20220;-72
2023/09/27 13:45:32;;;;;;;569.03;512.35;;;;;;;;;;4980482;28;20560;-75
2023/09/27 13:47:57;;;;;;;576.60;517.55;;;;;;;;;;4990534;28;20232;-75
2023/09/27 13:50:24;;;;;;;580.15;524.15;;;;;;;;;;4981475;28;20205;-75